KASX/ASX METAR and TAF weather

Enter ICAO airport designator
Station Type Date Time Source
KASX METAR 2022/11/30 09:53 UTC NOAA

KASX 300953Z AUTO 25012G20KT 10SM OVC024 01/M08 A2960 RMK AO2 SNB0857E08 SLPNO P0000 T00111083 $


Station Type Date Time Source
KASX Decoded METAR 2022/11/30 09:53 UTC NOAA

ASHLAND KENNEDY MEMORIAL, WI, United States (KASX) 46-33N 090-55W 251M
Nov 30, 2022 - 04:53 AM EST / 2022.11.30 0953 UTC
Wind: from the WSW (250 degrees) at 14 MPH (12 KT) gusting to 23 MPH (20 KT):0
Visibility: 10 mile(s):0
Sky conditions: overcast
Precipitation last hour: A trace
Temperature: 34.0 F (1.1 C)
Windchill: 24 F (-4 C):1
Dew Point: 17.1 F (-8.3 C)
Relative Humidity: 49%
Pressure (altimeter): 29.6 in. Hg (1002 hPa)
ob: KASX 300953Z AUTO 25012G20KT 10SM OVC024 01/M08 A2960 RMK AO2 SNB0857E08 SLPNO P0000 T00111083
cycle: 10

Station Type Date Time Source
KASX TAF UTC NOAA

Error!

Example: see airport list